sensor_id;sensor_type;location;lat;lon;timestamp;P1;durP1;ratioP1;P2;durP2;ratioP2
16824;SDS011;8529;48.108;-1.706;2022-11-15T00:01:16;4.40;;;1.58;;
16824;SDS011;8529;48.108;-1.706;2022-11-15T00:03:44;5.10;;;1.80;;
16824;SDS011;8529;48.108;-1.706;2022-11-15T00:06:12;4.53;;;1.65;;
16824;SDS011;8529;48.108;-1.706;2022-11-15T00:08:39;6.30;;;2.13;;
16824;SDS011;8529;48.108;-1.706;2022-11-15T00:11:06;3.90;;;1.50;;
16824;SDS011;8529;48.108;-1.706;2022-11-15T00:13:35;3.65;;;1.90;;
16824;SDS011;8529;48.108;-1.706;2022-11-15T00:16:04;5.35;;;1.67;;
16824;SDS011;8529;48.108;-1.706;2022-11-15T00:18:31;6.80;;;2.33;;
16824;SDS011;8529;48.108;-1.706;2022-11-15T00:21:03;5.75;;;2.03;;
16824;SDS011;8529;48.108;-1.706;2022-11-15T00:23:31;6.47;;;2.13;;
16824;SDS011;8529;48.108;-1.706;2022-11-15T00:25:58;6.30;;;2.00;;
16824;SDS011;8529;48.108;-1.706;2022-11-15T00:28:25;6.82;;;2.00;;
16824;SDS011;8529;48.108;-1.706;2022-11-15T00:30:53;5.88;;;1.98;;
16824;SDS011;8529;48.108;-1.706;2022-11-15T00:33:21;6.80;;;1.80;;
16824;SDS011;8529;48.108;-1.706;2022-11-15T00:35:48;7.07;;;1.92;;
16824;SDS011;8529;48.108;-1.706;2022-11-15T00:38:15;5.65;;;1.40;;
16824;SDS011;8529;48.108;-1.706;2022-11-15T00:40:42;5.70;;;2.20;;
16824;SDS011;8529;48.108;-1.706;2022-11-15T00:43:09;8.38;;;2.17;;
16824;SDS011;8529;48.108;-1.706;2022-11-15T00:45:35;8.13;;;2.50;;
16824;SDS011;8529;48.108;-1.706;2022-11-15T00:48:02;7.85;;;1.85;;
16824;SDS011;8529;48.108;-1.706;2022-11-15T00:50:31;4.38;;;1.65;;
16824;SDS011;8529;48.108;-1.706;2022-11-15T00:52:59;10.70;;;2.13;;
16824;SDS011;8529;48.108;-1.706;2022-11-15T00:55:26;4.20;;;1.60;;
16824;SDS011;8529;48.108;-1.706;2022-11-15T00:57:53;7.05;;;1.70;;
16824;SDS011;8529;48.108;-1.706;2022-11-15T01:00:20;5.22;;;1.60;;
16824;SDS011;8529;48.108;-1.706;2022-11-15T01:02:47;5.75;;;1.90;;
16824;SDS011;8529;48.108;-1.706;2022-11-15T01:05:14;7.93;;;2.00;;
16824;SDS011;8529;48.108;-1.706;2022-11-15T01:07:42;5.60;;;2.22;;
16824;SDS011;8529;48.108;-1.706;2022-11-15T01:10:09;8.45;;;1.77;;
16824;SDS011;8529;48.108;-1.706;2022-11-15T01:12:36;11.70;;;2.22;;
16824;SDS011;8529;48.108;-1.706;2022-11-15T01:15:03;3.92;;;1.35;;
16824;SDS011;8529;48.108;-1.706;2022-11-15T01:17:31;7.60;;;1.70;;
16824;SDS011;8529;48.108;-1.706;2022-11-15T01:19:58;3.88;;;1.42;;
16824;SDS011;8529;48.108;-1.706;2022-11-15T01:22:25;5.47;;;1.35;;
16824;SDS011;8529;48.108;-1.706;2022-11-15T01:24:53;4.30;;;1.52;;
16824;SDS011;8529;48.108;-1.706;2022-11-15T01:27:20;3.75;;;1.77;;
16824;SDS011;8529;48.108;-1.706;2022-11-15T01:29:47;6.45;;;1.48;;
16824;SDS011;8529;48.108;-1.706;2022-11-15T01:32:14;4.25;;;1.30;;
16824;SDS011;8529;48.108;-1.706;2022-11-15T01:34:42;7.53;;;1.80;;
16824;SDS011;8529;48.108;-1.706;2022-11-15T01:37:09;4.22;;;1.10;;
16824;SDS011;8529;48.108;-1.706;2022-11-15T01:39:36;4.68;;;1.50;;
16824;SDS011;8529;48.108;-1.706;2022-11-15T01:42:04;6.35;;;1.60;;
16824;SDS011;8529;48.108;-1.706;2022-11-15T01:44:36;4.60;;;1.40;;
16824;SDS011;8529;48.108;-1.706;2022-11-15T01:47:06;3.45;;;1.40;;
16824;SDS011;8529;48.108;-1.706;2022-11-15T01:49:37;7.43;;;1.70;;
16824;SDS011;8529;48.108;-1.706;2022-11-15T01:52:09;4.10;;;1.20;;
16824;SDS011;8529;48.108;-1.706;2022-11-15T01:54:39;4.25;;;1.48;;
16824;SDS011;8529;48.108;-1.706;2022-11-15T01:57:08;4.20;;;1.10;;
16824;SDS011;8529;48.108;-1.706;2022-11-15T01:59:37;5.65;;;1.17;;
16824;SDS011;8529;48.108;-1.706;2022-11-15T02:02:06;5.63;;;1.38;;
16824;SDS011;8529;48.108;-1.706;2022-11-15T02:04:35;6.43;;;1.35;;
16824;SDS011;8529;48.108;-1.706;2022-11-15T02:07:05;4.68;;;1.10;;
16824;SDS011;8529;48.108;-1.706;2022-11-15T02:09:35;5.80;;;1.17;;
16824;SDS011;8529;48.108;-1.706;2022-11-15T02:12:02;4.22;;;1.50;;
16824;SDS011;8529;48.108;-1.706;2022-11-15T02:14:32;5.47;;;1.20;;
16824;SDS011;8529;48.108;-1.706;2022-11-15T02:17:02;4.10;;;1.17;;
16824;SDS011;8529;48.108;-1.706;2022-11-15T02:19:51;3.85;;;1.33;;
16824;SDS011;8529;48.108;-1.706;2022-11-15T02:22:37;4.22;;;1.20;;
16824;SDS011;8529;48.108;-1.706;2022-11-15T02:25:22;3.63;;;1.13;;
16824;SDS011;8529;48.108;-1.706;2022-11-15T02:28:10;6.53;;;1.17;;
16824;SDS011;8529;48.108;-1.706;2022-11-15T02:30:54;4.93;;;1.30;;
16824;SDS011;8529;48.108;-1.706;2022-11-15T02:33:27;11.25;;;1.38;;
16824;SDS011;8529;48.108;-1.706;2022-11-15T02:36:01;6.60;;;1.30;;
16824;SDS011;8529;48.108;-1.706;2022-11-15T02:38:33;4.03;;;1.50;;
16824;SDS011;8529;48.108;-1.706;2022-11-15T02:41:07;4.03;;;1.00;;
16824;SDS011;8529;48.108;-1.706;2022-11-15T02:43:40;4.75;;;1.30;;
16824;SDS011;8529;48.108;-1.706;2022-11-15T02:46:25;6.32;;;1.38;;
16824;SDS011;8529;48.108;-1.706;2022-11-15T02:49:11;4.90;;;1.00;;
16824;SDS011;8529;48.108;-1.706;2022-11-15T02:51:39;6.65;;;1.45;;
16824;SDS011;8529;48.108;-1.706;2022-11-15T02:54:10;3.55;;;1.17;;
16824;SDS011;8529;48.108;-1.706;2022-11-15T02:56:38;4.25;;;1.10;;
16824;SDS011;8529;48.108;-1.706;2022-11-15T02:59:19;7.00;;;1.00;;
16824;SDS011;8529;48.108;-1.706;2022-11-15T03:02:03;7.70;;;1.35;;
16824;SDS011;8529;48.108;-1.706;2022-11-15T03:04:42;6.55;;;1.23;;
16824;SDS011;8529;48.108;-1.706;2022-11-15T03:07:15;5.43;;;1.33;;
16824;SDS011;8529;48.108;-1.706;2022-11-15T03:09:48;3.97;;;1.10;;
16824;SDS011;8529;48.108;-1.706;2022-11-15T03:12:23;6.38;;;1.20;;
16824;SDS011;8529;48.108;-1.706;2022-11-15T03:14:54;4.65;;;1.10;;
16824;SDS011;8529;48.108;-1.706;2022-11-15T03:17:27;6.40;;;1.25;;
16824;SDS011;8529;48.108;-1.706;2022-11-15T03:19:56;5.90;;;1.98;;
16824;SDS011;8529;48.108;-1.706;2022-11-15T03:22:27;2.65;;;1.05;;
16824;SDS011;8529;48.108;-1.706;2022-11-15T03:24:59;5.20;;;1.00;;
16824;SDS011;8529;48.108;-1.706;2022-11-15T03:27:30;1.70;;;0.95;;
16824;SDS011;8529;48.108;-1.706;2022-11-15T03:30:04;7.85;;;1.08;;
16824;SDS011;8529;48.108;-1.706;2022-11-15T03:32:35;5.40;;;1.30;;
16824;SDS011;8529;48.108;-1.706;2022-11-15T03:35:07;8.35;;;1.20;;
16824;SDS011;8529;48.108;-1.706;2022-11-15T03:37:39;4.90;;;1.10;;
16824;SDS011;8529;48.108;-1.706;2022-11-15T03:40:10;5.10;;;1.00;;
16824;SDS011;8529;48.108;-1.706;2022-11-15T03:42:39;5.38;;;1.15;;
16824;SDS011;8529;48.108;-1.706;2022-11-15T03:45:12;4.72;;;1.60;;
16824;SDS011;8529;48.108;-1.706;2022-11-15T03:47:43;3.03;;;1.20;;
16824;SDS011;8529;48.108;-1.706;2022-11-15T03:50:15;5.90;;;1.13;;
16824;SDS011;8529;48.108;-1.706;2022-11-15T03:52:45;3.50;;;1.08;;
16824;SDS011;8529;48.108;-1.706;2022-11-15T03:55:15;4.50;;;1.08;;
16824;SDS011;8529;48.108;-1.706;2022-11-15T03:57:44;7.88;;;1.15;;
16824;SDS011;8529;48.108;-1.706;2022-11-15T04:00:12;5.85;;;1.33;;
16824;SDS011;8529;48.108;-1.706;2022-11-15T04:02:39;6.97;;;0.93;;
16824;SDS011;8529;48.108;-1.706;2022-11-15T04:05:07;5.05;;;1.25;;
16824;SDS011;8529;48.108;-1.706;2022-11-15T04:07:34;4.22;;;1.20;;
16824;SDS011;8529;48.108;-1.706;2022-11-15T04:10:01;6.55;;;0.90;;
16824;SDS011;8529;48.108;-1.706;2022-11-15T04:12:29;4.03;;;1.30;;
16824;SDS011;8529;48.108;-1.706;2022-11-15T04:14:57;5.50;;;1.48;;
16824;SDS011;8529;48.108;-1.706;2022-11-15T04:17:35;7.53;;;1.20;;
16824;SDS011;8529;48.108;-1.706;2022-11-15T04:20:04;4.65;;;0.95;;
16824;SDS011;8529;48.108;-1.706;2022-11-15T04:22:53;6.20;;;1.10;;
16824;SDS011;8529;48.108;-1.706;2022-11-15T04:25:38;7.20;;;1.15;;
16824;SDS011;8529;48.108;-1.706;2022-11-15T04:28:05;3.38;;;1.30;;
16824;SDS011;8529;48.108;-1.706;2022-11-15T04:30:32;5.63;;;1.13;;
16824;SDS011;8529;48.108;-1.706;2022-11-15T04:32:59;8.68;;;1.20;;
16824;SDS011;8529;48.108;-1.706;2022-11-15T04:35:26;4.70;;;0.95;;
16824;SDS011;8529;48.108;-1.706;2022-11-15T04:37:54;6.68;;;1.27;;
16824;SDS011;8529;48.108;-1.706;2022-11-15T04:40:20;7.32;;;1.02;;
16824;SDS011;8529;48.108;-1.706;2022-11-15T04:42:47;5.55;;;1.35;;
16824;SDS011;8529;48.108;-1.706;2022-11-15T04:45:14;5.43;;;1.00;;
16824;SDS011;8529;48.108;-1.706;2022-11-15T04:47:42;5.13;;;1.77;;
16824;SDS011;8529;48.108;-1.706;2022-11-15T04:50:11;5.50;;;1.45;;
16824;SDS011;8529;48.108;-1.706;2022-11-15T04:52:39;6.25;;;1.38;;
16824;SDS011;8529;48.108;-1.706;2022-11-15T04:55:08;4.43;;;1.17;;
16824;SDS011;8529;48.108;-1.706;2022-11-15T04:57:35;12.02;;;1.90;;
16824;SDS011;8529;48.108;-1.706;2022-11-15T05:00:03;6.35;;;1.33;;
16824;SDS011;8529;48.108;-1.706;2022-11-15T05:02:31;5.10;;;1.27;;
16824;SDS011;8529;48.108;-1.706;2022-11-15T05:05:12;5.85;;;1.08;;
16824;SDS011;8529;48.108;-1.706;2022-11-15T05:07:39;4.05;;;0.95;;
16824;SDS011;8529;48.108;-1.706;2022-11-15T05:10:06;8.40;;;1.20;;
16824;SDS011;8529;48.108;-1.706;2022-11-15T05:12:34;4.60;;;1.25;;
16824;SDS011;8529;48.108;-1.706;2022-11-15T05:15:01;4.07;;;1.38;;
16824;SDS011;8529;48.108;-1.706;2022-11-15T05:17:28;4.40;;;1.08;;
16824;SDS011;8529;48.108;-1.706;2022-11-15T05:19:55;5.72;;;1.10;;
16824;SDS011;8529;48.108;-1.706;2022-11-15T05:22:22;7.93;;;1.17;;
16824;SDS011;8529;48.108;-1.706;2022-11-15T05:24:49;5.25;;;1.25;;
16824;SDS011;8529;48.108;-1.706;2022-11-15T05:27:16;6.05;;;1.48;;
16824;SDS011;8529;48.108;-1.706;2022-11-15T05:29:45;5.60;;;1.08;;
16824;SDS011;8529;48.108;-1.706;2022-11-15T05:32:12;6.38;;;1.30;;
16824;SDS011;8529;48.108;-1.706;2022-11-15T05:34:39;3.63;;;1.25;;
16824;SDS011;8529;48.108;-1.706;2022-11-15T05:37:06;2.95;;;1.25;;
16824;SDS011;8529;48.108;-1.706;2022-11-15T05:39:33;5.05;;;0.98;;
16824;SDS011;8529;48.108;-1.706;2022-11-15T05:42:01;4.00;;;1.30;;
16824;SDS011;8529;48.108;-1.706;2022-11-15T05:44:32;9.95;;;1.63;;
16824;SDS011;8529;48.108;-1.706;2022-11-15T05:47:03;4.97;;;1.33;;
16824;SDS011;8529;48.108;-1.706;2022-11-15T05:49:33;6.05;;;1.25;;
16824;SDS011;8529;48.108;-1.706;2022-11-15T05:52:03;3.00;;;1.23;;
16824;SDS011;8529;48.108;-1.706;2022-11-15T05:54:32;4.57;;;1.58;;
16824;SDS011;8529;48.108;-1.706;2022-11-15T05:57:00;5.25;;;1.17;;
16824;SDS011;8529;48.108;-1.706;2022-11-15T05:59:28;7.65;;;1.63;;
16824;SDS011;8529;48.108;-1.706;2022-11-15T06:01:56;6.00;;;1.40;;
16824;SDS011;8529;48.108;-1.706;2022-11-15T06:04:24;5.53;;;1.77;;
16824;SDS011;8529;48.108;-1.706;2022-11-15T06:06:51;4.90;;;1.33;;
16824;SDS011;8529;48.108;-1.706;2022-11-15T06:09:18;8.35;;;1.58;;
16824;SDS011;8529;48.108;-1.706;2022-11-15T06:11:45;4.55;;;1.55;;
16824;SDS011;8529;48.108;-1.706;2022-11-15T06:14:12;6.15;;;1.60;;
16824;SDS011;8529;48.108;-1.706;2022-11-15T06:16:39;5.93;;;1.77;;
16824;SDS011;8529;48.108;-1.706;2022-11-15T06:19:06;6.85;;;1.63;;
16824;SDS011;8529;48.108;-1.706;2022-11-15T06:21:35;5.53;;;1.60;;
16824;SDS011;8529;48.108;-1.706;2022-11-15T06:24:03;7.82;;;2.90;;
16824;SDS011;8529;48.108;-1.706;2022-11-15T06:26:31;6.93;;;1.50;;
16824;SDS011;8529;48.108;-1.706;2022-11-15T06:28:58;4.85;;;1.25;;
16824;SDS011;8529;48.108;-1.706;2022-11-15T06:31:25;3.53;;;1.20;;
16824;SDS011;8529;48.108;-1.706;2022-11-15T06:33:52;5.90;;;1.25;;
16824;SDS011;8529;48.108;-1.706;2022-11-15T06:36:19;5.15;;;1.30;;
16824;SDS011;8529;48.108;-1.706;2022-11-15T06:38:47;6.38;;;1.63;;
16824;SDS011;8529;48.108;-1.706;2022-11-15T06:41:14;7.97;;;1.70;;
16824;SDS011;8529;48.108;-1.706;2022-11-15T06:43:42;8.73;;;1.75;;
16824;SDS011;8529;48.108;-1.706;2022-11-15T06:46:09;7.88;;;1.60;;
16824;SDS011;8529;48.108;-1.706;2022-11-15T06:48:36;8.40;;;1.65;;
16824;SDS011;8529;48.108;-1.706;2022-11-15T06:51:04;4.25;;;1.50;;
16824;SDS011;8529;48.108;-1.706;2022-11-15T06:53:31;5.45;;;1.90;;
16824;SDS011;8529;48.108;-1.706;2022-11-15T06:56:00;5.50;;;1.50;;
16824;SDS011;8529;48.108;-1.706;2022-11-15T06:58:27;7.47;;;1.60;;
16824;SDS011;8529;48.108;-1.706;2022-11-15T07:00:59;6.70;;;1.58;;
16824;SDS011;8529;48.108;-1.706;2022-11-15T07:03:26;4.65;;;2.00;;
16824;SDS011;8529;48.108;-1.706;2022-11-15T07:05:53;5.65;;;1.73;;
16824;SDS011;8529;48.108;-1.706;2022-11-15T07:08:21;3.75;;;1.58;;
16824;SDS011;8529;48.108;-1.706;2022-11-15T07:10:49;6.03;;;1.65;;
16824;SDS011;8529;48.108;-1.706;2022-11-15T07:13:17;6.38;;;2.00;;
16824;SDS011;8529;48.108;-1.706;2022-11-15T07:15:44;2.92;;;1.30;;
16824;SDS011;8529;48.108;-1.706;2022-11-15T07:18:11;6.65;;;1.63;;
16824;SDS011;8529;48.108;-1.706;2022-11-15T07:20:38;3.72;;;1.33;;
16824;SDS011;8529;48.108;-1.706;2022-11-15T07:23:05;4.65;;;1.60;;
16824;SDS011;8529;48.108;-1.706;2022-11-15T07:25:32;5.95;;;1.85;;
16824;SDS011;8529;48.108;-1.706;2022-11-15T07:27:59;5.50;;;2.00;;
16824;SDS011;8529;48.108;-1.706;2022-11-15T07:30:28;4.82;;;1.58;;
16824;SDS011;8529;48.108;-1.706;2022-11-15T07:32:55;4.55;;;1.52;;
16824;SDS011;8529;48.108;-1.706;2022-11-15T07:35:23;3.30;;;1.42;;
16824;SDS011;8529;48.108;-1.706;2022-11-15T07:37:54;5.63;;;1.35;;
16824;SDS011;8529;48.108;-1.706;2022-11-15T07:40:22;4.43;;;1.90;;
16824;SDS011;8529;48.108;-1.706;2022-11-15T07:42:49;3.58;;;1.33;;
16824;SDS011;8529;48.108;-1.706;2022-11-15T07:45:20;3.28;;;1.35;;
16824;SDS011;8529;48.108;-1.706;2022-11-15T07:47:52;2.45;;;1.50;;
16824;SDS011;8529;48.108;-1.706;2022-11-15T07:50:21;4.20;;;1.52;;
16824;SDS011;8529;48.108;-1.706;2022-11-15T07:52:52;5.43;;;3.05;;
16824;SDS011;8529;48.108;-1.706;2022-11-15T07:55:20;5.15;;;3.08;;
16824;SDS011;8529;48.108;-1.706;2022-11-15T07:57:47;4.13;;;2.17;;
16824;SDS011;8529;48.108;-1.706;2022-11-15T08:00:14;4.50;;;2.05;;
16824;SDS011;8529;48.108;-1.706;2022-11-15T08:02:42;4.28;;;2.72;;
16824;SDS011;8529;48.108;-1.706;2022-11-15T08:05:10;5.03;;;2.30;;
16824;SDS011;8529;48.108;-1.706;2022-11-15T08:07:38;5.78;;;4.22;;
16824;SDS011;8529;48.108;-1.706;2022-11-15T08:10:05;4.07;;;2.80;;
16824;SDS011;8529;48.108;-1.706;2022-11-15T08:12:33;3.83;;;1.92;;
16824;SDS011;8529;48.108;-1.706;2022-11-15T08:15:00;7.10;;;4.47;;
16824;SDS011;8529;48.108;-1.706;2022-11-15T08:17:27;4.50;;;3.60;;
16824;SDS011;8529;48.108;-1.706;2022-11-15T08:19:57;6.80;;;3.10;;
16824;SDS011;8529;48.108;-1.706;2022-11-15T08:22:25;14.93;;;13.38;;
16824;SDS011;8529;48.108;-1.706;2022-11-15T08:24:52;14.73;;;8.52;;
16824;SDS011;8529;48.108;-1.706;2022-11-15T08:27:19;16.45;;;10.93;;
16824;SDS011;8529;48.108;-1.706;2022-11-15T08:29:47;12.45;;;7.25;;
16824;SDS011;8529;48.108;-1.706;2022-11-15T08:32:14;13.52;;;9.73;;
16824;SDS011;8529;48.108;-1.706;2022-11-15T08:34:42;7.18;;;2.92;;
16824;SDS011;8529;48.108;-1.706;2022-11-15T08:37:09;13.35;;;9.40;;
16824;SDS011;8529;48.108;-1.706;2022-11-15T08:39:38;2.67;;;1.20;;
16824;SDS011;8529;48.108;-1.706;2022-11-15T08:42:05;6.70;;;5.63;;
16824;SDS011;8529;48.108;-1.706;2022-11-15T08:44:31;10.40;;;9.27;;
16824;SDS011;8529;48.108;-1.706;2022-11-15T08:46:58;6.95;;;5.20;;
16824;SDS011;8529;48.108;-1.706;2022-11-15T08:49:25;4.68;;;2.33;;
16824;SDS011;8529;48.108;-1.706;2022-11-15T08:51:52;3.13;;;1.90;;
16824;SDS011;8529;48.108;-1.706;2022-11-15T08:54:19;9.02;;;8.15;;
16824;SDS011;8529;48.108;-1.706;2022-11-15T08:56:47;5.97;;;4.13;;
16824;SDS011;8529;48.108;-1.706;2022-11-15T08:59:14;3.75;;;3.45;;
16824;SDS011;8529;48.108;-1.706;2022-11-15T09:01:41;4.30;;;2.20;;
16824;SDS011;8529;48.108;-1.706;2022-11-15T09:04:08;4.53;;;1.80;;
16824;SDS011;8529;48.108;-1.706;2022-11-15T09:06:35;4.45;;;1.95;;
16824;SDS011;8529;48.108;-1.706;2022-11-15T09:09:02;5.68;;;3.47;;
16824;SDS011;8529;48.108;-1.706;2022-11-15T09:11:29;6.35;;;5.43;;
16824;SDS011;8529;48.108;-1.706;2022-11-15T09:13:57;6.28;;;2.28;;
16824;SDS011;8529;48.108;-1.706;2022-11-15T09:16:24;7.18;;;3.60;;
16824;SDS011;8529;48.108;-1.706;2022-11-15T09:18:52;4.55;;;2.20;;
16824;SDS011;8529;48.108;-1.706;2022-11-15T09:21:19;6.07;;;2.10;;
16824;SDS011;8529;48.108;-1.706;2022-11-15T09:23:46;5.93;;;2.35;;
16824;SDS011;8529;48.108;-1.706;2022-11-15T09:26:12;4.55;;;2.10;;
16824;SDS011;8529;48.108;-1.706;2022-11-15T09:28:39;7.78;;;4.18;;
16824;SDS011;8529;48.108;-1.706;2022-11-15T09:31:08;6.38;;;4.88;;
16824;SDS011;8529;48.108;-1.706;2022-11-15T09:33:36;7.88;;;4.70;;
16824;SDS011;8529;48.108;-1.706;2022-11-15T09:36:03;7.55;;;2.92;;
16824;SDS011;8529;48.108;-1.706;2022-11-15T09:38:32;9.02;;;3.45;;
16824;SDS011;8529;48.108;-1.706;2022-11-15T09:41:08;5.60;;;2.50;;
16824;SDS011;8529;48.108;-1.706;2022-11-15T09:43:56;8.90;;;1.70;;
16824;SDS011;8529;48.108;-1.706;2022-11-15T09:46:36;5.50;;;2.03;;
16824;SDS011;8529;48.108;-1.706;2022-11-15T09:49:13;7.75;;;1.90;;
16824;SDS011;8529;48.108;-1.706;2022-11-15T09:51:42;5.57;;;2.58;;
16824;SDS011;8529;48.108;-1.706;2022-11-15T09:54:16;4.90;;;1.92;;
16824;SDS011;8529;48.108;-1.706;2022-11-15T09:56:53;5.45;;;1.80;;
16824;SDS011;8529;48.108;-1.706;2022-11-15T09:59:28;6.68;;;2.15;;
16824;SDS011;8529;48.108;-1.706;2022-11-15T10:02:18;3.30;;;1.40;;
16824;SDS011;8529;48.108;-1.706;2022-11-15T10:04:59;3.78;;;1.80;;
16824;SDS011;8529;48.108;-1.706;2022-11-15T10:07:28;7.45;;;2.00;;
16824;SDS011;8529;48.108;-1.706;2022-11-15T10:10:04;5.25;;;1.60;;
16824;SDS011;8529;48.108;-1.706;2022-11-15T10:12:36;4.22;;;2.30;;
16824;SDS011;8529;48.108;-1.706;2022-11-15T10:15:05;8.13;;;3.05;;
16824;SDS011;8529;48.108;-1.706;2022-11-15T10:17:54;4.93;;;2.22;;
16824;SDS011;8529;48.108;-1.706;2022-11-15T10:20:30;6.93;;;1.88;;
16824;SDS011;8529;48.108;-1.706;2022-11-15T10:23:02;5.95;;;2.25;;
16824;SDS011;8529;48.108;-1.706;2022-11-15T10:25:36;8.05;;;3.72;;
16824;SDS011;8529;48.108;-1.706;2022-11-15T10:28:09;4.28;;;1.88;;
16824;SDS011;8529;48.108;-1.706;2022-11-15T10:30:41;8.75;;;3.45;;
16824;SDS011;8529;48.108;-1.706;2022-11-15T10:33:12;7.68;;;3.10;;
16824;SDS011;8529;48.108;-1.706;2022-11-15T10:35:46;8.15;;;6.55;;
16824;SDS011;8529;48.108;-1.706;2022-11-15T10:38:12;8.95;;;4.13;;
16824;SDS011;8529;48.108;-1.706;2022-11-15T10:40:40;7.60;;;2.95;;
16824;SDS011;8529;48.108;-1.706;2022-11-15T10:43:13;9.02;;;4.78;;
16824;SDS011;8529;48.108;-1.706;2022-11-15T10:45:42;9.15;;;4.15;;
16824;SDS011;8529;48.108;-1.706;2022-11-15T10:50:55;6.63;;;2.42;;
16824;SDS011;8529;48.108;-1.706;2022-11-15T10:53:24;7.88;;;3.30;;
16824;SDS011;8529;48.108;-1.706;2022-11-15T10:55:56;17.70;;;3.83;;
16824;SDS011;8529;48.108;-1.706;2022-11-15T10:58:30;13.40;;;5.30;;
16824;SDS011;8529;48.108;-1.706;2022-11-15T11:01:14;13.00;;;5.20;;
16824;SDS011;8529;48.108;-1.706;2022-11-15T11:03:44;14.65;;;7.03;;
16824;SDS011;8529;48.108;-1.706;2022-11-15T11:06:23;22.33;;;12.38;;
16824;SDS011;8529;48.108;-1.706;2022-11-15T11:08:55;16.38;;;5.72;;
16824;SDS011;8529;48.108;-1.706;2022-11-15T11:11:23;11.10;;;6.95;;
16824;SDS011;8529;48.108;-1.706;2022-11-15T11:13:50;9.40;;;2.78;;
16824;SDS011;8529;48.108;-1.706;2022-11-15T11:16:20;15.45;;;10.98;;
16824;SDS011;8529;48.108;-1.706;2022-11-15T11:19:11;15.10;;;3.67;;
16824;SDS011;8529;48.108;-1.706;2022-11-15T11:21:57;8.68;;;3.38;;
16824;SDS011;8529;48.108;-1.706;2022-11-15T11:24:33;26.25;;;6.68;;
16824;SDS011;8529;48.108;-1.706;2022-11-15T11:27:07;14.30;;;3.58;;
16824;SDS011;8529;48.108;-1.706;2022-11-15T11:29:44;13.02;;;2.33;;
16824;SDS011;8529;48.108;-1.706;2022-11-15T11:35:17;10.20;;;3.45;;
16824;SDS011;8529;48.108;-1.706;2022-11-15T11:37:49;11.38;;;2.55;;
16824;SDS011;8529;48.108;-1.706;2022-11-15T11:40:26;14.13;;;4.07;;
16824;SDS011;8529;48.108;-1.706;2022-11-15T11:42:58;7.03;;;2.35;;
16824;SDS011;8529;48.108;-1.706;2022-11-15T11:48:25;14.93;;;2.50;;
16824;SDS011;8529;48.108;-1.706;2022-11-15T11:51:08;18.23;;;2.45;;
16824;SDS011;8529;48.108;-1.706;2022-11-15T11:53:40;10.80;;;2.58;;
16824;SDS011;8529;48.108;-1.706;2022-11-15T11:56:14;9.45;;;2.17;;
16824;SDS011;8529;48.108;-1.706;2022-11-15T11:58:48;13.02;;;1.85;;
16824;SDS011;8529;48.108;-1.706;2022-11-15T12:01:18;9.48;;;1.83;;
16824;SDS011;8529;48.108;-1.706;2022-11-15T12:03:51;9.75;;;2.17;;
16824;SDS011;8529;48.108;-1.706;2022-11-15T12:06:26;7.15;;;1.30;;
16824;SDS011;8529;48.108;-1.706;2022-11-15T12:09:00;11.40;;;2.15;;
16824;SDS011;8529;48.108;-1.706;2022-11-15T12:11:35;7.35;;;1.90;;
16824;SDS011;8529;48.108;-1.706;2022-11-15T12:14:10;7.70;;;1.60;;
16824;SDS011;8529;48.108;-1.706;2022-11-15T12:16:42;7.22;;;1.55;;
16824;SDS011;8529;48.108;-1.706;2022-11-15T12:19:09;7.18;;;2.20;;
16824;SDS011;8529;48.108;-1.706;2022-11-15T12:21:39;15.90;;;2.35;;
16824;SDS011;8529;48.108;-1.706;2022-11-15T12:24:13;7.97;;;2.88;;
16824;SDS011;8529;48.108;-1.706;2022-11-15T12:26:45;13.07;;;1.88;;
16824;SDS011;8529;48.108;-1.706;2022-11-15T12:29:19;8.15;;;1.60;;
16824;SDS011;8529;48.108;-1.706;2022-11-15T12:31:52;9.57;;;2.72;;
16824;SDS011;8529;48.108;-1.706;2022-11-15T12:34:41;9.43;;;2.00;;
16824;SDS011;8529;48.108;-1.706;2022-11-15T12:46:03;13.38;;;2.53;;
16824;SDS011;8529;48.108;-1.706;2022-11-15T12:48:45;8.93;;;1.63;;
16824;SDS011;8529;48.108;-1.706;2022-11-15T12:51:20;5.65;;;1.48;;
16824;SDS011;8529;48.108;-1.706;2022-11-15T12:53:48;3.78;;;1.33;;
16824;SDS011;8529;48.108;-1.706;2022-11-15T12:56:23;6.53;;;1.55;;
16824;SDS011;8529;48.108;-1.706;2022-11-15T12:58:52;8.10;;;1.42;;
16824;SDS011;8529;48.108;-1.706;2022-11-15T13:04:25;6.05;;;1.10;;
16824;SDS011;8529;48.108;-1.706;2022-11-15T13:06:55;9.57;;;1.40;;
16824;SDS011;8529;48.108;-1.706;2022-11-15T13:15:31;5.03;;;1.40;;
16824;SDS011;8529;48.108;-1.706;2022-11-15T13:21:05;5.82;;;1.10;;
16824;SDS011;8529;48.108;-1.706;2022-11-15T13:24:03;7.47;;;1.23;;
16824;SDS011;8529;48.108;-1.706;2022-11-15T13:26:31;5.93;;;1.50;;
16824;SDS011;8529;48.108;-1.706;2022-11-15T13:28:59;5.28;;;1.33;;
16824;SDS011;8529;48.108;-1.706;2022-11-15T13:31:28;5.20;;;1.73;;
16824;SDS011;8529;48.108;-1.706;2022-11-15T13:34:01;7.55;;;2.33;;
16824;SDS011;8529;48.108;-1.706;2022-11-15T13:36:30;8.27;;;1.55;;
16824;SDS011;8529;48.108;-1.706;2022-11-15T13:39:00;6.05;;;2.30;;
16824;SDS011;8529;48.108;-1.706;2022-11-15T13:41:30;6.45;;;1.13;;
16824;SDS011;8529;48.108;-1.706;2022-11-15T13:44:00;10.18;;;1.33;;
16824;SDS011;8529;48.108;-1.706;2022-11-15T13:46:28;5.25;;;1.40;;
16824;SDS011;8529;48.108;-1.706;2022-11-15T13:48:58;5.82;;;1.48;;
16824;SDS011;8529;48.108;-1.706;2022-11-15T13:51:29;7.45;;;1.15;;
16824;SDS011;8529;48.108;-1.706;2022-11-15T13:54:01;9.68;;;1.50;;
16824;SDS011;8529;48.108;-1.706;2022-11-15T13:56:33;12.90;;;2.30;;
16824;SDS011;8529;48.108;-1.706;2022-11-15T13:59:08;7.82;;;1.10;;
16824;SDS011;8529;48.108;-1.706;2022-11-15T14:01:36;9.30;;;1.63;;
16824;SDS011;8529;48.108;-1.706;2022-11-15T14:04:10;9.50;;;2.15;;
16824;SDS011;8529;48.108;-1.706;2022-11-15T14:06:43;7.13;;;2.10;;
16824;SDS011;8529;48.108;-1.706;2022-11-15T14:09:34;8.48;;;1.67;;
16824;SDS011;8529;48.108;-1.706;2022-11-15T14:12:20;10.80;;;1.98;;
16824;SDS011;8529;48.108;-1.706;2022-11-15T14:14:54;5.50;;;1.15;;
16824;SDS011;8529;48.108;-1.706;2022-11-15T14:17:33;2.63;;;0.90;;
16824;SDS011;8529;48.108;-1.706;2022-11-15T14:20:02;9.43;;;1.50;;
16824;SDS011;8529;48.108;-1.706;2022-11-15T14:22:53;4.78;;;0.80;;
16824;SDS011;8529;48.108;-1.706;2022-11-15T14:25:21;3.53;;;0.70;;
16824;SDS011;8529;48.108;-1.706;2022-11-15T14:28:08;5.07;;;0.88;;
16824;SDS011;8529;48.108;-1.706;2022-11-15T14:30:38;3.95;;;1.48;;
16824;SDS011;8529;48.108;-1.706;2022-11-15T14:33:16;4.22;;;1.30;;
16824;SDS011;8529;48.108;-1.706;2022-11-15T14:35:45;5.43;;;1.02;;
16824;SDS011;8529;48.108;-1.706;2022-11-15T14:38:12;5.45;;;0.70;;
16824;SDS011;8529;48.108;-1.706;2022-11-15T14:40:40;3.72;;;0.80;;
16824;SDS011;8529;48.108;-1.706;2022-11-15T14:43:07;5.22;;;1.27;;
16824;SDS011;8529;48.108;-1.706;2022-11-15T14:45:35;4.63;;;0.90;;
16824;SDS011;8529;48.108;-1.706;2022-11-15T14:48:04;2.88;;;0.98;;
16824;SDS011;8529;48.108;-1.706;2022-11-15T14:50:32;4.68;;;1.08;;
16824;SDS011;8529;48.108;-1.706;2022-11-15T14:52:59;7.00;;;2.40;;
16824;SDS011;8529;48.108;-1.706;2022-11-15T14:55:28;6.93;;;1.38;;
16824;SDS011;8529;48.108;-1.706;2022-11-15T14:57:57;4.78;;;1.33;;
16824;SDS011;8529;48.108;-1.706;2022-11-15T15:00:24;7.63;;;1.35;;
16824;SDS011;8529;48.108;-1.706;2022-11-15T15:02:53;4.40;;;1.35;;
16824;SDS011;8529;48.108;-1.706;2022-11-15T15:05:21;4.07;;;1.02;;
16824;SDS011;8529;48.108;-1.706;2022-11-15T15:07:50;5.40;;;0.60;;
16824;SDS011;8529;48.108;-1.706;2022-11-15T15:10:18;4.30;;;0.63;;
16824;SDS011;8529;48.108;-1.706;2022-11-15T15:12:45;3.50;;;0.60;;
16824;SDS011;8529;48.108;-1.706;2022-11-15T15:15:13;5.18;;;1.00;;
16824;SDS011;8529;48.108;-1.706;2022-11-15T15:17:41;2.92;;;0.73;;
16824;SDS011;8529;48.108;-1.706;2022-11-15T15:20:09;4.72;;;1.30;;
16824;SDS011;8529;48.108;-1.706;2022-11-15T15:22:37;3.60;;;0.60;;
16824;SDS011;8529;48.108;-1.706;2022-11-15T15:25:10;3.83;;;1.00;;
16824;SDS011;8529;48.108;-1.706;2022-11-15T15:27:47;2.05;;;0.88;;
16824;SDS011;8529;48.108;-1.706;2022-11-15T15:30:14;1.67;;;0.60;;
16824;SDS011;8529;48.108;-1.706;2022-11-15T15:32:41;3.30;;;0.70;;
16824;SDS011;8529;48.108;-1.706;2022-11-15T15:35:12;4.45;;;1.80;;